Time;durP1;ratioP1;P1;durP2;ratioP2;P2;SDS_P1;SDS_P2;PMS_P1;PMS_P2;Temp;Humidity;BMP_temperature;BMP_pressure;BME280_temperature;BME280_humidity;BME280_pressure;Samples;Min_cycle;Max_cycle;Signal;HPM_P1;HPM_P2
2023/06/17 00:01:34;;;;;;;7.77;3.17;;;;;;;14.83;98.77;98978.63;5025290;28;20303;-57
2023/06/17 00:04:04;;;;;;;6.87;3.20;;;;;;;14.82;99.62;98969.00;5011722;28;20311;-59
2023/06/17 00:06:35;;;;;;;5.03;3.30;;;;;;;14.73;99.68;98968.69;4995314;28;20808;-58
2023/06/17 00:09:07;;;;;;;7.03;3.60;;;;;;;14.83;100.00;98990.94;5005582;28;20750;-57
2023/06/17 00:11:39;;;;;;;11.63;4.00;;;;;;;14.82;100.00;98978.69;4995464;28;20292;-57
2023/06/17 00:14:10;;;;;;;7.70;3.83;;;;;;;15.04;100.00;98979.22;5023438;28;20284;-59
2023/06/17 00:16:43;;;;;;;5.23;3.27;;;;;;;15.23;100.00;98970.31;5014619;28;20283;-57
2023/06/17 00:19:15;;;;;;;9.50;3.87;;;;;;;15.30;100.00;98979.53;5024595;28;20288;-56
2023/06/17 00:21:49;;;;;;;6.20;3.73;;;;;;;15.37;100.00;98978.25;5014692;28;20311;-58
2023/06/17 00:24:22;;;;;;;9.63;4.30;;;;;;;15.43;100.00;98982.34;5024915;28;20283;-58
2023/06/17 00:26:53;;;;;;;5.13;3.90;;;;;;;15.46;100.00;98969.84;5015161;28;20746;-59
2023/06/17 00:29:24;;;;;;;6.33;3.60;;;;;;;15.49;100.00;98964.41;5024513;28;20314;-56
2023/06/17 00:31:55;;;;;;;8.80;4.27;;;;;;;15.74;100.00;98955.13;5014504;28;20333;-58
2023/06/17 00:34:25;;;;;;;9.00;4.07;;;;;;;15.92;100.00;98951.41;5024291;28;20769;-59
2023/06/17 00:36:56;;;;;;;6.33;3.80;;;;;;;16.04;100.00;98938.44;5031376;28;20266;-59
2023/06/17 00:39:28;;;;;;;8.17;4.10;;;;;;;15.94;99.70;98907.38;5044175;28;20378;-58
2023/06/17 00:41:59;;;;;;;8.50;4.23;;;;;;;15.94;98.71;98939.00;5033323;28;20303;-59
2023/06/17 00:44:29;;;;;;;9.60;4.67;;;;;;;15.92;98.59;98961.94;5043610;28;20349;-56
2023/06/17 00:47:00;;;;;;;5.83;4.13;;;;;;;15.81;98.55;98963.53;5025212;28;20305;-56
2023/06/17 00:49:35;;;;;;;7.87;4.70;;;;;;;15.58;98.76;98926.19;5043182;28;20311;-58
2023/06/17 00:52:07;;;;;;;8.33;5.03;;;;;;;15.54;98.30;98951.81;5033125;28;20291;-57
2023/06/17 00:55:00;;;;;;;8.23;5.70;;;;;;;15.45;98.73;98956.75;5033326;28;20286;-59
2023/06/17 00:57:31;;;;;;;9.13;5.10;;;;;;;15.31;99.02;98933.88;5044019;28;20646;-56
2023/06/17 01:00:05;;;;;;;8.97;5.37;;;;;;;15.32;99.46;98933.81;5033251;28;21082;-57
2023/06/17 01:02:39;;;;;;;11.10;5.13;;;;;;;15.28;99.79;98923.53;5033569;28;20935;-58
2023/06/17 01:05:12;;;;;;;7.47;4.47;;;;;;;15.06;100.00;98895.81;5046910;28;20591;-57
2023/06/17 01:07:56;;;;;;;7.37;4.97;;;;;;;15.12;100.00;98912.16;5028340;28;21136;-59
2023/06/17 01:10:36;;;;;;;6.83;4.90;;;;;;;15.20;100.00;98920.47;5039506;28;20808;-57
2023/06/17 01:13:07;;;;;;;6.23;4.70;;;;;;;15.20;100.00;98920.47;5028931;28;20291;-58
2023/06/17 01:15:39;;;;;;;8.17;5.07;;;;;;;14.85;100.00;98839.13;5028607;28;20318;-58
2023/06/17 01:18:20;;;;;;;8.27;4.50;;;;;;;15.36;100.00;98895.00;5039963;28;20757;-56
2023/06/17 01:20:53;;;;;;;7.27;4.97;;;;;;;15.46;100.00;98896.16;5028573;28;20322;-58
2023/06/17 01:23:31;;;;;;;8.43;4.73;;;;;;;15.51;99.94;98902.00;5039182;28;20286;-56
2023/06/17 01:26:03;;;;;;;7.53;5.07;;;;;;;15.61;99.96;98893.56;5028594;28;20295;-59
2023/06/17 01:28:36;;;;;;;8.23;4.53;;;;;;;15.73;99.53;98895.50;5028560;28;20876;-56
2023/06/17 01:31:08;;;;;;;7.07;4.87;;;;;;;15.90;99.62;98890.06;5039331;28;20322;-56
2023/06/17 01:33:40;;;;;;;8.17;4.60;;;;;;;16.16;99.02;98869.19;5030838;28;20368;-56
2023/06/17 01:36:16;;;;;;;7.20;5.20;;;;;;;16.27;98.70;98837.72;5043742;28;20879;-57
2023/06/17 01:38:51;;;;;;;9.47;5.00;;;;;;;16.77;97.50;98860.09;5032665;28;20404;-58
2023/06/17 01:41:34;;;;;;;7.53;5.10;;;;;;;16.93;95.75;98843.28;5043152;28;20289;-57
2023/06/17 01:44:06;;;;;;;7.20;4.60;;;;;;;17.14;94.75;98836.59;5032686;28;20303;-58
2023/06/17 01:46:38;;;;;;;7.73;5.13;;;;;;;17.40;94.20;98844.59;5033247;28;20294;-58
2023/06/17 01:49:09;;;;;;;8.57;5.30;;;;;;;17.49;93.77;98846.59;5042718;28;20978;-59
2023/06/17 01:51:39;;;;;;;31.03;15.77;;;;;;;17.52;92.13;98846.38;5031975;28;20902;-58
2023/06/17 01:54:10;;;;;;;10.27;6.67;;;;;;;17.47;91.95;98837.91;5042999;28;20287;-58
2023/06/17 01:56:43;;;;;;;17.27;14.63;;;;;;;17.44;91.67;98838.97;5032345;28;20355;-56
2023/06/17 01:59:13;;;;;;;12.73;10.23;;;;;;;17.44;91.75;98848.69;5042094;28;20326;-58
2023/06/17 02:01:44;;;;;;;10.10;6.33;;;;;;;17.37;90.99;98842.13;5032047;28;21348;-60
2023/06/17 02:04:15;;;;;;;13.20;10.17;;;;;;;17.29;91.17;98840.00;5042464;28;21309;-58
2023/06/17 02:06:45;;;;;;;10.27;6.10;;;;;;;17.37;91.64;98843.00;5032374;28;20945;-58
2023/06/17 02:09:16;;;;;;;7.87;5.57;;;;;;;17.35;90.93;98833.47;5042578;28;20998;-57
2023/06/17 02:11:48;;;;;;;8.23;5.53;;;;;;;17.38;91.53;98828.84;5031517;28;20679;-59
2023/06/17 02:14:19;;;;;;;8.30;5.77;;;;;;;17.40;91.23;98826.09;5041651;28;20305;-57
2023/06/17 02:16:52;;;;;;;9.93;5.33;;;;;;;17.41;91.40;98843.63;5031514;28;20295;-60
2023/06/17 02:19:22;;;;;;;9.00;5.37;;;;;;;17.25;91.65;98802.41;5041533;28;20341;-58
2023/06/17 02:21:53;;;;;;;12.47;7.80;;;;;;;17.59;91.87;98837.09;5031005;28;20292;-59
2023/06/17 02:24:24;;;;;;;10.80;7.83;;;;;;;17.47;91.76;98800.94;5041990;28;20672;-58
2023/06/17 02:26:56;;;;;;;9.13;6.23;;;;;;;17.83;92.46;98836.41;5031022;28;20275;-55
2023/06/17 02:29:27;;;;;;;11.03;6.83;;;;;;;17.83;89.75;98828.47;5040695;28;20887;-58
2023/06/17 02:31:58;;;;;;;11.97;6.53;;;;;;;18.01;89.44;98832.47;5031374;28;20344;-59
2023/06/17 02:34:29;;;;;;;12.47;6.03;;;;;;;17.73;89.29;98753.44;5041258;28;20287;-57
2023/06/17 02:37:00;;;;;;;11.40;6.27;;;;;;;18.19;88.49;98818.91;5030374;28;20356;-59
2023/06/17 02:39:31;;;;;;;8.83;6.13;;;;;;;18.13;86.91;98814.91;5041416;28;20427;-57
2023/06/17 02:42:03;;;;;;;12.83;6.87;;;;;;;18.05;87.28;98810.16;5029993;28;20319;-58
2023/06/17 02:44:35;;;;;;;13.20;6.77;;;;;;;18.14;87.87;98821.88;5025720;28;20294;-58
2023/06/17 02:47:09;;;;;;;9.37;6.10;;;;;;;18.33;88.19;98810.84;5038269;28;20305;-57
2023/06/17 02:49:40;;;;;;;10.10;6.07;;;;;;;18.48;88.18;98809.75;5030941;28;20749;-58
2023/06/17 02:52:10;;;;;;;9.30;5.43;;;;;;;18.75;87.36;98816.66;5040328;28;20835;-59
2023/06/17 02:54:42;;;;;;;13.07;6.83;;;;;;;18.92;85.71;98803.06;5030363;28;20286;-59
2023/06/17 02:57:15;;;;;;;10.37;6.20;;;;;;;19.06;84.67;98803.81;5041626;28;20287;-57
2023/06/17 02:59:46;;;;;;;11.00;6.20;;;;;;;19.07;83.91;98802.84;5030467;28;20291;-60
2023/06/17 03:02:16;;;;;;;8.97;6.17;;;;;;;18.84;83.20;98765.72;5040406;28;20287;-59
2023/06/17 03:04:48;;;;;;;13.73;6.77;;;;;;;19.07;82.78;98800.19;5030479;28;20366;-61
2023/06/17 03:07:19;;;;;;;9.57;6.63;;;;;;;19.30;83.26;98791.41;5040387;28;20845;-58
2023/06/17 03:09:49;;;;;;;11.13;6.40;;;;;;;19.70;83.12;98788.38;5030846;28;20761;-59
2023/06/17 03:12:21;;;;;;;10.87;5.83;;;;;;;20.11;81.74;98794.88;5041558;28;20371;-60
2023/06/17 03:14:52;;;;;;;9.27;6.60;;;;;;;20.36;81.94;98795.56;5030769;28;20288;-57
2023/06/17 03:17:24;;;;;;;11.57;5.10;;;;;;;20.37;80.56;98784.00;5040740;28;21481;-59
2023/06/17 03:19:56;;;;;;;9.97;6.53;;;;;;;20.37;79.60;98791.97;5030486;28;20344;-59
2023/06/17 03:22:27;;;;;;;12.50;6.00;;;;;;;20.50;80.44;98787.34;5039606;28;20398;-60
2023/06/17 03:24:57;;;;;;;11.70;6.20;;;;;;;20.72;80.76;98790.94;5029444;28;20377;-60
2023/06/17 03:27:29;;;;;;;10.90;5.30;;;;;;;20.68;77.83;98785.88;5040955;28;20290;-60
2023/06/17 03:30:00;;;;;;;11.90;6.03;;;;;;;20.39;77.42;98769.66;5029977;28;20346;-58
2023/06/17 03:32:30;;;;;;;7.90;5.93;;;;;;;20.22;77.59;98789.56;5040148;28;20299;-60
2023/06/17 03:35:02;;;;;;;8.90;5.73;;;;;;;20.16;78.56;98784.75;5010192;28;20657;-61
2023/06/17 03:37:32;;;;;;;8.33;5.57;;;;;;;20.29;78.59;98783.75;5031183;28;20287;-58
2023/06/17 03:40:04;;;;;;;9.47;5.80;;;;;;;20.22;77.76;98768.34;5039942;28;20348;-58
2023/06/17 03:42:37;;;;;;;13.80;6.60;;;;;;;20.44;78.68;98767.47;5029102;28;20337;-60
2023/06/17 03:45:08;;;;;;;10.57;6.07;;;;;;;20.57;77.45;98772.66;5040456;28;20295;-60
2023/06/17 03:47:39;;;;;;;8.83;6.00;;;;;;;20.73;77.51;98771.41;5029198;28;20287;-59
2023/06/17 03:50:10;;;;;;;13.83;5.60;;;;;;;21.20;77.14;98763.97;5039942;28;20286;-57
2023/06/17 03:52:42;;;;;;;9.40;5.87;;;;;;;21.61;75.31;98759.59;5029757;28;20279;-58
2023/06/17 03:55:12;;;;;;;19.77;6.57;;;;;;;21.71;75.62;98763.16;5039519;28;20279;-59
2023/06/17 03:57:45;;;;;;;10.50;5.80;;;;;;;21.84;74.44;98750.50;5028835;28;20279;-59
2023/06/17 04:00:16;;;;;;;10.43;5.50;;;;;;;22.05;74.01;98762.91;5039416;28;20606;-58
2023/06/17 04:02:47;;;;;;;10.93;5.93;;;;;;;21.89;73.03;98735.00;5029125;28;20729;-60
2023/06/17 04:05:20;;;;;;;10.47;6.10;;;;;;;22.22;73.13;98748.97;5039472;28;20314;-59
2023/06/17 04:07:51;;;;;;;8.27;5.43;;;;;;;22.40;70.90;98751.81;5029108;28;20348;-61
2023/06/17 04:10:22;;;;;;;9.20;5.77;;;;;;;22.37;72.80;98739.63;5039620;28;20287;-60
2023/06/17 04:12:54;;;;;;;9.73;5.67;;;;;;;22.23;72.17;98742.66;5029066;28;20543;-60
2023/06/17 04:15:25;;;;;;;9.17;5.60;;;;;;;21.78;68.73;98745.69;5039749;28;20056;-58
2023/06/17 04:17:56;;;;;;;9.47;5.83;;;;;;;21.39;70.34;98747.31;5028649;28;20052;-58
2023/06/17 04:20:27;;;;;;;8.20;5.80;;;;;;;21.23;72.45;98727.34;5039703;28;20728;-57
2023/06/17 04:22:57;;;;;;;9.47;6.30;;;;;;;21.32;73.67;98731.03;5028873;28;20141;-60
2023/06/17 04:25:32;;;;;;;9.87;5.70;;;;;;;21.47;73.97;98716.47;5039334;28;20307;-57
2023/06/17 04:28:07;;;;;;;8.83;4.90;;;;;;;21.72;73.97;98722.31;5029085;28;20374;-58
2023/06/17 04:30:37;;;;;;;7.70;5.63;;;;;;;21.87;69.77;98726.31;5029236;28;20748;-61
2023/06/17 04:33:11;;;;;;;10.07;5.90;;;;;;;21.88;71.22;98738.59;5039388;28;20303;-60
2023/06/17 04:35:42;;;;;;;9.47;5.90;;;;;;;22.12;73.21;98724.13;5028445;28;20052;-59
2023/06/17 04:38:13;;;;;;;10.77;5.60;;;;;;;22.20;71.58;98726.97;5038536;28;20143;-58
2023/06/17 04:40:43;;;;;;;8.13;6.10;;;;;;;22.17;71.34;98701.47;5028936;28;20048;-59
2023/06/17 04:43:16;;;;;;;15.67;6.67;;;;;;;22.33;70.16;98714.25;5038779;28;20129;-60
2023/06/17 04:45:47;;;;;;;10.53;6.00;;;;;;;22.40;73.02;98718.06;5028154;28;20105;-60
2023/06/17 04:48:17;;;;;;;8.80;5.90;;;;;;;22.65;72.74;98720.31;5039592;28;20135;-58
2023/06/17 04:50:48;;;;;;;12.13;5.93;;;;;;;22.78;67.83;98705.72;5028502;28;20056;-59
2023/06/17 04:53:20;;;;;;;10.50;5.37;;;;;;;22.67;68.91;98708.56;5038887;28;20060;-59
2023/06/17 04:55:50;;;;;;;9.87;6.20;;;;;;;22.92;68.68;98706.31;5028709;28;20143;-59
2023/06/17 04:58:23;;;;;;;10.37;5.87;;;;;;;22.50;66.88;98674.66;5038847;28;20067;-58
2023/06/17 05:00:53;;;;;;;10.37;5.60;;;;;;;22.56;67.59;98695.38;5029051;28;20472;-61
2023/06/17 05:03:24;;;;;;;7.90;5.67;;;;;;;22.40;68.49;98707.41;5039925;28;20076;-60
2023/06/17 05:05:55;;;;;;;10.30;6.23;;;;;;;22.25;67.83;98708.78;5028380;28;20060;-57
2023/06/17 05:08:25;;;;;;;10.23;6.20;;;;;;;21.93;67.88;98704.47;5039582;28;20525;-58
2023/06/17 05:10:56;;;;;;;12.17;6.10;;;;;;;21.79;69.88;98711.97;5032820;28;20060;-59
2023/06/17 05:13:28;;;;;;;7.73;5.90;;;;;;;21.87;70.69;98707.69;5042861;28;20053;-61
2023/06/17 05:15:59;;;;;;;10.23;5.53;;;;;;;22.07;69.55;98710.41;5032431;28;20068;-61
2023/06/17 05:18:30;;;;;;;8.97;6.33;;;;;;;21.84;68.81;98684.03;5043285;28;20052;-61
2023/06/17 05:21:00;;;;;;;11.20;6.17;;;;;;;21.78;69.66;98694.34;5020355;28;20067;-58
2023/06/17 05:23:31;;;;;;;10.20;6.30;;;;;;;21.57;69.45;98694.41;5039736;28;20094;-60
2023/06/17 05:26:02;;;;;;;12.67;6.00;;;;;;;21.35;71.62;98688.25;5031672;28;20769;-63
2023/06/17 05:28:34;;;;;;;10.83;6.20;;;;;;;21.42;70.44;98686.81;5038048;28;20622;-61
2023/06/17 05:31:05;;;;;;;11.30;5.90;;;;;;;21.63;70.85;98691.22;5042519;28;20052;-60
2023/06/17 05:33:35;;;;;;;12.70;6.40;;;;;;;21.80;70.00;98695.91;5031678;28;20287;-59
2023/06/17 05:36:06;;;;;;;9.17;5.83;;;;;;;21.84;69.93;98689.34;5042877;28;20095;-60
2023/06/17 05:38:37;;;;;;;9.80;6.23;;;;;;;21.71;70.61;98689.56;5031893;28;20052;-60
2023/06/17 05:41:08;;;;;;;9.03;5.63;;;;;;;21.92;68.82;98697.47;5041082;28;20118;-59
2023/06/17 05:43:40;;;;;;;12.73;6.57;;;;;;;22.33;70.69;98690.31;5031768;28;20498;-60
2023/06/17 05:46:11;;;;;;;10.90;5.70;;;;;;;22.69;71.11;98679.97;5042496;28;20386;-61
2023/06/17 05:48:42;;;;;;;13.27;6.13;;;;;;;23.00;69.60;98693.16;5031947;28;20294;-58
2023/06/17 05:51:15;;;;;;;10.83;6.20;;;;;;;22.95;65.28;98692.69;5042310;28;21175;-61
2023/06/17 05:53:46;;;;;;;12.73;6.23;;;;;;;22.46;67.53;98689.19;5031841;28;20059;-60
2023/06/17 05:56:18;;;;;;;9.67;6.60;;;;;;;22.88;69.08;98694.25;5042183;28;20053;-57
2023/06/17 05:58:50;;;;;;;10.40;5.60;;;;;;;23.37;68.21;98692.38;5030172;28;20789;-59
2023/06/17 06:01:21;;;;;;;17.33;7.07;;;;;;;23.74;68.60;98696.88;5040248;28;21105;-59
2023/06/17 06:03:52;;;;;;;8.43;5.40;;;;;;;23.64;67.94;98686.25;5027469;28;21303;-58
2023/06/17 06:06:22;;;;;;;10.83;5.57;;;;;;;23.67;67.07;98686.78;5041184;28;20081;-60
2023/06/17 06:08:53;;;;;;;8.47;5.23;;;;;;;23.79;64.64;98698.13;5031115;28;20053;-58
2023/06/17 06:11:24;;;;;;;10.00;4.90;;;;;;;23.60;65.02;98704.34;5041533;28;20075;-61
2023/06/17 06:13:57;;;;;;;7.20;5.03;;;;;;;23.67;66.25;98702.78;5030240;28;20451;-59
2023/06/17 06:16:28;;;;;;;9.73;5.63;;;;;;;23.68;66.99;98699.09;5040786;28;20533;-59
2023/06/17 06:18:59;;;;;;;7.63;5.17;;;;;;;23.49;64.88;98696.53;5030444;28;20121;-60
2023/06/17 06:21:30;;;;;;;6.80;4.87;;;;;;;22.97;65.07;98704.94;5041813;28;20057;-59
2023/06/17 06:24:01;;;;;;;7.30;4.97;;;;;;;23.03;65.97;98714.16;5018709;28;20159;-59
2023/06/17 06:26:31;;;;;;;10.83;5.20;;;;;;;23.11;65.54;98708.97;5019880;28;20147;-59
2023/06/17 06:29:04;;;;;;;7.77;5.30;;;;;;;22.85;64.98;98711.34;5021897;28;20139;-59
2023/06/17 06:31:34;;;;;;;8.97;5.23;;;;;;;22.68;65.88;98707.56;5011820;28;20144;-61
2023/06/17 06:34:05;;;;;;;10.80;5.30;;;;;;;23.00;68.29;98711.78;5033902;28;20487;-60
2023/06/17 06:36:36;;;;;;;8.67;5.80;;;;;;;23.21;68.84;98707.13;5030898;28;20055;-58
2023/06/17 06:39:06;;;;;;;15.93;6.27;;;;;;;22.94;68.15;98694.53;5041492;28;20049;-60
2023/06/17 06:41:37;;;;;;;8.43;6.50;;;;;;;22.69;69.41;98695.94;5030744;28;20080;-59
2023/06/17 06:44:09;;;;;;;10.37;5.97;;;;;;;22.87;70.66;98703.22;5040678;28;20701;-59
2023/06/17 06:46:40;;;;;;;7.67;5.20;;;;;;;22.81;70.69;98696.63;5029841;28;20051;-60
2023/06/17 06:49:11;;;;;;;7.90;5.40;;;;;;;22.60;70.30;98707.44;5040616;28;20048;-59
2023/06/17 06:51:42;;;;;;;6.63;5.47;;;;;;;22.46;71.33;98707.84;5028236;28;20399;-59
2023/06/17 06:54:13;;;;;;;12.63;5.20;;;;;;;22.37;71.99;98702.38;5041090;28;20052;-58
2023/06/17 06:56:44;;;;;;;7.67;5.57;;;;;;;22.29;72.25;98707.56;5030309;28;20048;-61
2023/06/17 06:59:16;;;;;;;12.97;6.30;;;;;;;22.22;72.62;98709.06;5039241;28;20570;-59
2023/06/17 07:01:47;;;;;;;8.17;5.90;;;;;;;22.08;72.89;98707.59;5029192;28;20048;-60
2023/06/17 07:04:18;;;;;;;10.37;7.57;;;;;;;22.04;73.83;98710.66;5039944;28;20053;-60
2023/06/17 07:06:50;;;;;;;12.43;7.00;;;;;;;21.90;73.66;98712.72;5029360;28;20056;-61
2023/06/17 07:09:20;;;;;;;11.90;8.63;;;;;;;21.86;73.81;98713.97;5041021;28;20056;-61
2023/06/17 07:11:51;;;;;;;9.63;7.17;;;;;;;21.69;73.31;98722.56;5030142;28;20418;-60
2023/06/17 07:14:23;;;;;;;15.63;12.40;;;;;;;21.52;74.16;98732.84;5040791;28;20096;-59
2023/06/17 07:16:54;;;;;;;34.20;22.57;;;;;;;21.39;74.61;98716.28;5030569;28;20068;-58
2023/06/17 07:19:25;;;;;;;31.13;19.43;;;;;;;21.31;75.62;98705.44;5041035;28;20058;-59
2023/06/17 07:21:55;;;;;;;92.30;57.60;;;;;;;21.28;76.19;98706.53;5028968;28;20059;-62
2023/06/17 07:24:26;;;;;;;39.73;27.17;;;;;;;21.35;77.10;98714.84;5039348;28;20083;-60
2023/06/17 07:26:57;;;;;;;11.20;6.60;;;;;;;21.48;77.73;98728.78;5029529;28;20071;-60
2023/06/17 07:29:29;;;;;;;10.93;5.30;;;;;;;21.68;76.71;98720.91;5040031;28;20295;-59
2023/06/17 07:32:00;;;;;;;12.17;4.57;;;;;;;21.50;76.61;98724.16;5027465;28;20052;-61
2023/06/17 07:34:31;;;;;;;8.77;4.57;;;;;;;21.44;77.24;98730.03;5039229;28;20048;-60
2023/06/17 07:37:01;;;;;;;10.37;4.40;;;;;;;21.43;76.84;98725.66;5029368;28;20290;-58
2023/06/17 07:39:32;;;;;;;13.50;4.23;;;;;;;21.58;76.64;98725.31;5039590;28;20651;-60
2023/06/17 07:42:02;;;;;;;8.87;4.60;;;;;;;21.41;76.36;98719.63;5040535;28;20285;-59
2023/06/17 07:44:34;;;;;;;7.83;4.07;;;;;;;21.37;76.70;98718.19;5031118;28;20291;-60
2023/06/17 07:47:06;;;;;;;6.57;3.87;;;;;;;21.28;76.13;98729.59;5039479;28;20291;-58
2023/06/17 07:49:38;;;;;;;8.80;3.63;;;;;;;20.83;76.44;98666.13;5028896;28;20283;-58
2023/06/17 07:52:09;;;;;;;9.60;4.27;;;;;;;21.05;77.15;98729.75;5040055;28;20286;-60
2023/06/17 07:54:41;;;;;;;8.50;4.23;;;;;;;20.72;77.68;98727.22;5029513;28;20283;-60
2023/06/17 07:57:11;;;;;;;10.20;4.93;;;;;;;20.55;78.51;98729.47;5040582;28;20293;-57
2023/06/17 07:59:44;;;;;;;9.13;3.77;;;;;;;20.75;78.51;98730.50;5029420;28;20769;-55
2023/06/17 08:02:15;;;;;;;7.57;3.77;;;;;;;20.81;77.45;98721.16;5039760;28;20344;-58
2023/06/17 08:04:47;;;;;;;7.30;4.07;;;;;;;20.89;77.94;98718.69;5028937;28;20389;-60
2023/06/17 08:07:19;;;;;;;14.77;4.30;;;;;;;20.80;78.13;98724.81;5037219;28;20381;-57
2023/06/17 08:09:50;;;;;;;8.90;3.83;;;;;;;20.62;78.68;98738.63;5028898;28;20352;-57
2023/06/17 08:12:20;;;;;;;10.63;5.00;;;;;;;20.38;80.20;98729.97;5035359;28;21187;-59
2023/06/17 08:14:53;;;;;;;11.13;4.43;;;;;;;20.15;80.65;98711.47;5025273;28;20301;-58
2023/06/17 08:17:23;;;;;;;9.33;3.53;;;;;;;20.00;81.73;98725.97;5036418;28;20630;-58
2023/06/17 08:19:54;;;;;;;13.37;4.10;;;;;;;19.79;83.24;98739.97;5029126;28;20354;-57
2023/06/17 08:22:25;;;;;;;15.17;4.73;;;;;;;19.58;83.70;98744.25;5039072;28;20322;-57
2023/06/17 08:24:55;;;;;;;8.57;4.40;;;;;;;19.44;84.84;98744.47;5028912;28;20293;-56
2023/06/17 08:27:27;;;;;;;9.43;4.10;;;;;;;19.54;84.57;98745.44;5039617;28;20333;-56
2023/06/17 08:30:02;;;;;;;12.90;4.50;;;;;;;19.61;84.67;98736.03;5028404;28;20302;-57
2023/06/17 08:32:33;;;;;;;6.53;3.70;;;;;;;19.74;83.49;98742.09;5032568;28;20381;-58
2023/06/17 08:35:06;;;;;;;11.67;4.50;;;;;;;19.62;83.58;98735.09;5038697;28;20283;-59
2023/06/17 08:37:36;;;;;;;9.70;4.47;;;;;;;19.52;84.19;98742.91;5028883;28;20314;-58
2023/06/17 08:40:08;;;;;;;8.90;4.30;;;;;;;19.35;84.36;98741.56;5039067;28;20271;-57
2023/06/17 08:42:40;;;;;;;8.90;4.20;;;;;;;19.30;84.99;98743.72;5027704;28;20287;-58
2023/06/17 08:45:14;;;;;;;8.67;4.03;;;;;;;18.72;84.43;98626.34;5039612;28;20298;-59
2023/06/17 08:47:44;;;;;;;13.57;6.37;;;;;;;19.50;84.18;98730.75;5028679;28;20332;-62
2023/06/17 08:50:15;;;;;;;11.57;4.60;;;;;;;19.56;83.56;98732.91;5038873;28;20516;-61
2023/06/17 08:52:48;;;;;;;14.90;5.70;;;;;;;19.76;83.39;98744.63;5028994;28;20345;-60
2023/06/17 08:55:22;;;;;;;12.60;4.13;;;;;;;19.78;81.91;98730.31;5039262;28;20711;-59
2023/06/17 08:57:53;;;;;;;10.13;4.20;;;;;;;19.86;82.08;98735.00;5029015;28;20340;-58
2023/06/17 09:00:25;;;;;;;7.47;4.40;;;;;;;19.97;82.16;98737.66;5039102;28;20599;-59
2023/06/17 09:03:00;;;;;;;8.60;4.20;;;;;;;20.10;81.48;98734.88;5012783;28;20313;-60
2023/06/17 09:05:31;;;;;;;7.63;3.83;;;;;;;20.12;80.51;98724.97;5038556;28;20305;-59
2023/06/17 09:08:02;;;;;;;7.60;4.10;;;;;;;20.08;80.58;98723.53;5027794;28;20297;-60
2023/06/17 09:10:44;;;;;;;8.27;3.80;;;;;;;19.97;80.72;98731.50;5030101;28;20278;-59
2023/06/17 09:13:15;;;;;;;14.07;4.37;;;;;;;19.87;80.85;98731.41;5038723;28;20314;-60
2023/06/17 09:15:49;;;;;;;11.27;4.60;;;;;;;19.77;81.41;98736.56;5028449;28;20324;-57
2023/06/17 09:18:22;;;;;;;9.67;4.73;;;;;;;19.68;81.37;98731.16;5038811;28;20386;-61
2023/06/17 09:20:55;;;;;;;9.97;4.50;;;;;;;19.50;81.96;98728.94;5012013;28;20280;-60
2023/06/17 09:23:26;;;;;;;9.97;3.90;;;;;;;19.46;83.01;98721.34;5039054;28;20933;-59
2023/06/17 09:26:03;;;;;;;9.97;4.03;;;;;;;19.23;82.45;98709.88;5028604;28;20317;-58
2023/06/17 09:28:35;;;;;;;11.23;5.03;;;;;;;19.18;83.07;98734.06;5027909;28;20652;-58
2023/06/17 09:31:24;;;;;;;9.27;4.93;;;;;;;19.09;83.55;98740.06;5038746;28;20302;-61
2023/06/17 09:33:56;;;;;;;6.97;4.15;;;;;;;18.81;83.13;98742.13;5028489;28;20282;-57
2023/06/17 09:36:28;;;;;;;9.07;4.13;;;;;;;18.40;83.19;98738.06;5039108;28;20067;-57
2023/06/17 09:39:29;;;;;;;17.53;3.97;;;;;;;17.83;84.75;98765.06;5020142;28;20291;-58
2023/06/17 09:42:23;;;;;;;8.30;3.80;;;;;;;17.19;88.13;98776.41;5038006;28;21114;-59
2023/06/17 09:45:18;;;;;;;10.40;4.00;;;;;;;16.79;88.72;98789.63;5024481;28;20633;-58
2023/06/17 09:47:55;;;;;;;7.37;3.57;;;;;;;16.26;89.04;98799.16;5027863;28;20298;-57
2023/06/17 09:50:36;;;;;;;8.37;3.80;;;;;;;15.78;89.48;98790.72;5038337;28;20950;-57
2023/06/17 09:53:09;;;;;;;8.77;3.60;;;;;;;15.50;89.98;98787.13;5028180;28;20379;-57
2023/06/17 09:55:43;;;;;;;7.43;3.23;;;;;;;15.26;90.56;98805.19;5013776;28;20287;-58
2023/06/17 09:58:20;;;;;;;10.27;4.00;;;;;;;15.01;92.50;98812.84;5041477;28;20330;-59
2023/06/17 10:00:56;;;;;;;10.30;3.70;;;;;;;14.89;93.20;98794.19;5031149;28;20282;-59
2023/06/17 10:03:45;;;;;;;10.70;3.37;;;;;;;14.84;93.01;98787.50;5042551;28;20299;-59
2023/06/17 10:06:19;;;;;;;10.80;3.80;;;;;;;14.90;93.24;98808.16;5039247;28;20302;-61
2023/06/17 10:08:57;;;;;;;5.57;3.83;;;;;;;14.77;94.07;98801.94;5031561;28;20097;-58
2023/06/17 10:11:33;;;;;;;12.97;4.13;;;;;;;14.88;93.68;98820.59;5041100;28;20287;-59
2023/06/17 10:14:12;;;;;;;16.67;6.70;;;;;;;14.61;94.10;98781.75;5031351;28;20282;-59
2023/06/17 10:16:49;;;;;;;8.70;4.10;;;;;;;14.72;93.73;98815.31;5031968;28;20306;-58
2023/06/17 10:19:32;;;;;;;10.37;4.00;;;;;;;14.30;94.67;98776.50;5041643;28;20351;-59
2023/06/17 10:22:11;;;;;;;8.93;3.80;;;;;;;14.44;95.20;98831.75;5031032;28;20741;-61
2023/06/17 10:24:44;;;;;;;11.77;4.37;;;;;;;14.35;95.84;98832.25;5031479;28;20301;-59
2023/06/17 10:27:25;;;;;;;14.20;3.57;;;;;;;14.28;96.32;98841.41;5041717;28;20290;-58
2023/06/17 10:30:00;;;;;;;13.20;4.00;;;;;;;14.32;97.44;98821.91;5022604;28;20273;-58
2023/06/17 10:33:25;;;;;;;8.03;4.33;;;;;;;14.19;96.85;98793.69;5030654;28;20279;-61
2023/06/17 10:36:17;;;;;;;8.97;5.10;;;;;;;13.96;97.12;98736.34;5016257;28;20286;-60
2023/06/17 10:38:56;;;;;;;10.53;4.00;;;;;;;14.62;96.79;98841.28;5030737;28;20967;-58
2023/06/17 10:41:51;;;;;;;;;;;;;;;14.63;96.23;98843.00;5040947;28;20295;-58
2023/06/17 10:44:43;;;;;;;13.30;4.10;;;;;;;14.63;96.68;98827.22;5040535;28;19929;-58
2023/06/17 10:47:23;;;;;;;10.10;4.63;;;;;;;14.66;96.46;98832.31;5040440;28;20291;-60
2023/06/17 10:49:56;;;;;;;9.67;4.67;;;;;;;14.57;96.27;98824.91;5030254;28;20372;-59
2023/06/17 10:52:32;;;;;;;9.60;4.80;;;;;;;14.61;96.40;98839.59;5040771;28;20378;-58
2023/06/17 10:55:05;;;;;;;9.93;4.43;;;;;;;14.61;96.36;98838.75;5029968;28;20665;-59
2023/06/17 10:57:38;;;;;;;13.13;4.63;;;;;;;14.49;96.29;98823.63;5029613;28;20275;-59
2023/06/17 11:00:11;;;;;;;12.57;4.70;;;;;;;14.50;96.46;98831.41;5040959;28;20765;-58
2023/06/17 11:02:43;;;;;;;6.27;4.27;;;;;;;14.54;96.93;98848.75;5030151;28;20283;-59
2023/06/17 11:05:18;;;;;;;10.03;5.07;;;;;;;14.52;97.63;98850.56;5039558;28;20321;-59
2023/06/17 11:07:52;;;;;;;15.47;4.70;;;;;;;14.56;97.58;98852.16;5029459;28;20338;-59
2023/06/17 11:10:28;;;;;;;12.87;4.50;;;;;;;14.58;97.75;98855.53;5040031;28;20413;-57
2023/06/17 11:13:00;;;;;;;10.03;3.80;;;;;;;14.57;97.58;98859.09;5029393;28;20283;-60
2023/06/17 11:15:32;;;;;;;14.20;5.00;;;;;;;14.57;97.22;98851.19;5039762;28;20998;-58
2023/06/17 11:18:06;;;;;;;11.63;5.30;;;;;;;14.26;97.59;98796.00;5029543;28;20295;-58
2023/06/17 11:20:38;;;;;;;12.17;4.97;;;;;;;14.48;97.87;98854.31;5029949;28;20319;-58
2023/06/17 11:23:12;;;;;;;11.33;4.27;;;;;;;14.39;97.84;98852.19;5040006;28;20287;-59
2023/06/17 11:25:45;;;;;;;13.68;4.65;;;;;;;14.19;97.99;98859.38;5029795;28;20315;-59
2023/06/17 11:28:17;;;;;;;8.93;4.70;;;;;;;14.16;98.28;98864.78;5039871;28;20052;-58
2023/06/17 11:30:49;;;;;;;8.93;4.27;;;;;;;14.09;99.36;98889.69;5029711;28;20710;-57
2023/06/17 11:33:22;;;;;;;8.80;4.20;;;;;;;14.09;100.00;98873.91;5039985;28;20787;-58
2023/06/17 11:35:55;;;;;;;5.40;3.80;;;;;;;13.99;100.00;98880.59;5028915;28;20342;-58
2023/06/17 11:38:29;;;;;;;8.63;4.28;;;;;;;13.88;100.00;98896.91;5039497;28;20275;-59
2023/06/17 11:41:01;;;;;;;10.10;4.90;;;;;;;13.79;100.00;98907.88;5028903;28;20061;-57
2023/06/17 11:43:33;;;;;;;7.70;4.18;;;;;;;13.72;100.00;98917.84;5039284;28;20757;-58
2023/06/17 11:46:05;;;;;;;8.40;4.00;;;;;;;13.65;100.00;98932.19;5029370;28;20048;-59
2023/06/17 11:48:37;;;;;;;9.43;4.45;;;;;;;13.56;100.00;98919.56;5029037;28;20394;-59
2023/06/17 11:51:09;;;;;;;11.40;4.88;;;;;;;13.42;100.00;98935.13;5039945;28;20143;-58
2023/06/17 11:53:47;;;;;;;10.82;4.85;;;;;;;13.38;100.00;98953.66;5029024;28;20048;-62
2023/06/17 11:56:21;;;;;;;10.85;5.30;;;;;;;13.33;100.00;98955.66;5039942;28;20463;-61